createdAt,value
2018-09-16T00:00:15.939Z,6.57
2018-09-16T00:02:45.616Z,4.90
2018-09-16T00:05:15.301Z,6.17
2018-09-16T00:07:44.931Z,3.87
2018-09-16T00:10:14.627Z,6.67
2018-09-16T00:12:44.285Z,4.40
2018-09-16T00:15:14.006Z,5.60
2018-09-16T00:17:43.665Z,5.03
2018-09-16T00:20:13.464Z,5.90
2018-09-16T00:22:43.119Z,6.20
2018-09-16T00:25:12.760Z,5.07
2018-09-16T00:27:42.461Z,4.90
2018-09-16T00:30:12.212Z,5.03
2018-09-16T00:32:43.737Z,4.17
2018-09-16T00:35:14.547Z,7.20
2018-09-16T00:37:44.236Z,4.57
2018-09-16T00:40:13.908Z,5.70
2018-09-16T00:42:43.596Z,3.57
2018-09-16T00:45:13.317Z,5.83
2018-09-16T00:47:42.973Z,5.20
2018-09-16T00:50:12.608Z,4.83
2018-09-16T00:52:42.265Z,7.57
2018-09-16T00:55:12.036Z,5.73
2018-09-16T00:57:41.664Z,5.53
2018-09-16T01:00:11.415Z,7.67
2018-09-16T01:02:41.139Z,4.97
2018-09-16T01:05:10.887Z,8.47
2018-09-16T01:07:40.563Z,6.33
2018-09-16T01:10:10.274Z,5.77
2018-09-16T01:12:39.953Z,7.03
2018-09-16T01:15:09.720Z,4.77
2018-09-16T01:17:39.608Z,5.60
2018-09-16T01:20:09.346Z,4.77
2018-09-16T01:22:38.992Z,7.23
2018-09-16T01:25:08.651Z,6.00
2018-09-16T01:27:38.317Z,8.63
2018-09-16T01:30:08.022Z,7.40
2018-09-16T01:32:37.677Z,6.40
2018-09-16T01:35:07.349Z,4.70
2018-09-16T01:37:42.059Z,5.77
2018-09-16T01:40:11.720Z,4.73
2018-09-16T01:42:41.412Z,5.87
2018-09-16T01:45:11.100Z,4.93
2018-09-16T01:47:40.753Z,8.73
2018-09-16T01:50:10.412Z,6.33
2018-09-16T01:52:40.084Z,6.97
2018-09-16T01:55:09.720Z,6.70
2018-09-16T01:57:39.366Z,8.17
2018-09-16T02:00:09.101Z,5.13
2018-09-16T02:02:38.752Z,4.70
2018-09-16T02:05:08.414Z,6.33
2018-09-16T02:07:38.113Z,6.33
2018-09-16T02:10:07.876Z,6.53
2018-09-16T02:12:37.579Z,5.77
2018-09-16T02:15:07.316Z,6.13
2018-09-16T02:17:36.951Z,7.70
2018-09-16T02:20:06.682Z,6.93
2018-09-16T02:22:36.353Z,4.97
2018-09-16T02:25:06.368Z,5.63
2018-09-16T02:27:36.078Z,7.37
2018-09-16T02:30:06.359Z,5.17
2018-09-16T02:32:36.681Z,8.10
2018-09-16T02:35:06.388Z,7.00
2018-09-16T02:37:36.081Z,6.17
2018-09-16T02:40:05.824Z,6.30
2018-09-16T02:42:35.463Z,9.40
2018-09-16T02:45:05.292Z,8.17
2018-09-16T02:47:34.935Z,5.77
2018-09-16T02:50:04.708Z,5.07
2018-09-16T02:52:34.405Z,7.97
2018-09-16T02:55:04.124Z,7.60
2018-09-16T02:57:33.875Z,6.00
2018-09-16T03:00:03.715Z,8.33
2018-09-16T03:02:33.396Z,5.80
2018-09-16T03:05:03.094Z,6.90
2018-09-16T03:07:32.788Z,6.10
2018-09-16T03:10:02.480Z,6.00
2018-09-16T03:12:32.192Z,6.80
2018-09-16T03:15:01.940Z,9.97
2018-09-16T03:17:31.845Z,9.90
2018-09-16T03:20:01.624Z,9.33
2018-09-16T03:22:31.312Z,6.33
2018-09-16T03:25:00.964Z,8.67
2018-09-16T03:27:30.613Z,6.50
2018-09-16T03:30:00.309Z,8.17
2018-09-16T03:32:29.974Z,8.83
2018-09-16T03:34:59.637Z,10.03
2018-09-16T03:37:29.304Z,7.30
2018-09-16T03:39:58.944Z,10.03
2018-09-16T03:42:28.604Z,8.00
2018-09-16T03:44:58.236Z,7.60
2018-09-16T03:47:27.912Z,7.80
2018-09-16T03:49:57.586Z,7.20
2018-09-16T03:52:27.268Z,8.77
2018-09-16T03:54:56.917Z,7.50
2018-09-16T03:57:26.607Z,8.67
2018-09-16T03:59:56.248Z,10.67
2018-09-16T04:02:25.881Z,7.83
2018-09-16T04:04:55.561Z,11.33
2018-09-16T04:07:25.241Z,10.83
2018-09-16T04:09:54.881Z,8.57
2018-09-16T04:12:24.556Z,10.23
2018-09-16T04:14:54.209Z,14.13
2018-09-16T04:17:23.885Z,9.13
2018-09-16T04:19:54.445Z,14.07
2018-09-16T04:22:24.121Z,8.47
2018-09-16T04:24:53.778Z,9.47
2018-09-16T04:27:23.507Z,10.33
2018-09-16T04:29:53.258Z,9.60
2018-09-16T04:32:22.980Z,12.53
2018-09-16T04:34:52.650Z,10.87
2018-09-16T04:37:22.283Z,10.60
2018-09-16T04:39:51.945Z,9.53
2018-09-16T04:42:21.576Z,11.13
2018-09-16T04:44:51.330Z,9.53
2018-09-16T04:47:21.313Z,10.90
2018-09-16T04:49:51.156Z,9.73
2018-09-16T04:52:20.772Z,8.90
2018-09-16T04:54:50.451Z,10.40
2018-09-16T04:57:20.113Z,9.57
2018-09-16T04:59:49.765Z,10.03
2018-09-16T05:02:19.445Z,10.57
2018-09-16T05:04:49.093Z,10.33
2018-09-16T05:07:18.828Z,10.37
2018-09-16T05:09:48.476Z,12.70
2018-09-16T05:12:18.152Z,9.83
2018-09-16T05:14:47.789Z,9.53
2018-09-16T05:17:17.488Z,11.53
2018-09-16T05:19:47.200Z,8.97
2018-09-16T05:22:16.944Z,10.43
2018-09-16T05:24:46.642Z,10.17
2018-09-16T05:27:16.292Z,9.90
2018-09-16T05:29:45.972Z,13.17
2018-09-16T05:32:15.604Z,14.07
2018-09-16T05:34:45.291Z,11.53
2018-09-16T05:37:14.962Z,9.87
2018-09-16T05:39:44.591Z,14.33
2018-09-16T05:42:14.264Z,10.03
2018-09-16T05:44:43.904Z,13.33
2018-09-16T05:47:13.548Z,10.13
2018-09-16T05:49:43.224Z,11.20
2018-09-16T05:52:12.875Z,11.60
2018-09-16T05:54:42.584Z,10.40
2018-09-16T05:57:12.248Z,10.17
2018-09-16T05:59:41.908Z,8.53
2018-09-16T06:02:11.667Z,10.63
2018-09-16T06:04:41.380Z,11.70
2018-09-16T06:07:11.020Z,11.00
2018-09-16T06:09:40.725Z,12.17
2018-09-16T06:12:10.396Z,11.20
2018-09-16T06:14:40.044Z,10.87
2018-09-16T06:17:09.776Z,9.30
2018-09-16T06:19:39.730Z,10.83
2018-09-16T06:22:09.640Z,9.77
2018-09-16T06:24:39.339Z,11.10
2018-09-16T06:27:09.022Z,12.07
2018-09-16T06:29:38.669Z,11.43
2018-09-16T06:32:08.360Z,11.60
2018-09-16T06:34:38.024Z,9.70
2018-09-16T06:37:07.665Z,12.90
2018-09-16T06:39:37.367Z,11.47
2018-09-16T06:42:07.037Z,9.70
2018-09-16T06:44:36.712Z,9.80
2018-09-16T06:47:06.388Z,10.87
2018-09-16T06:49:36.066Z,10.17
2018-09-16T06:52:05.816Z,10.57
2018-09-16T06:54:35.545Z,9.90
2018-09-16T06:57:05.304Z,13.33
2018-09-16T06:59:34.959Z,10.33
2018-09-16T07:02:04.660Z,9.00
2018-09-16T07:04:34.316Z,9.07
2018-09-16T07:07:03.988Z,11.63
2018-09-16T07:09:33.720Z,10.33
2018-09-16T07:12:03.414Z,15.40
2018-09-16T07:14:33.126Z,10.27
2018-09-16T07:17:02.904Z,11.47
2018-09-16T07:19:32.584Z,10.03
2018-09-16T07:22:02.452Z,9.50
2018-09-16T07:24:32.131Z,9.63
2018-09-16T07:27:01.767Z,12.50
2018-09-16T07:29:31.437Z,10.80
2018-09-16T07:32:01.075Z,14.40
2018-09-16T07:34:30.779Z,10.73
2018-09-16T07:37:00.518Z,10.03
2018-09-16T07:39:30.203Z,9.83
2018-09-16T07:41:59.835Z,11.30
2018-09-16T07:44:29.488Z,9.73
2018-09-16T07:46:59.213Z,11.17
2018-09-16T07:49:28.860Z,12.77
2018-09-16T07:51:58.584Z,12.53
2018-09-16T07:54:28.220Z,9.87
2018-09-16T07:56:57.852Z,13.17
2018-09-16T07:59:27.544Z,9.87
2018-09-16T08:01:57.180Z,12.20
2018-09-16T08:04:26.832Z,9.20
2018-09-16T08:06:56.511Z,9.03
2018-09-16T08:09:26.160Z,9.53
2018-09-16T08:11:55.836Z,12.73
2018-09-16T08:14:25.524Z,9.33
2018-09-16T08:16:55.177Z,11.87
2018-09-16T08:19:24.939Z,10.47
2018-09-16T08:21:54.602Z,13.40
2018-09-16T08:24:24.335Z,10.03
2018-09-16T08:26:54.024Z,9.10
2018-09-16T08:29:24.093Z,11.60
2018-09-16T08:31:54.232Z,8.67
2018-09-16T08:34:23.952Z,10.83
2018-09-16T08:36:53.710Z,8.80
2018-09-16T08:39:23.387Z,10.07
2018-09-16T08:41:53.048Z,7.57
2018-09-16T08:44:22.756Z,9.73
2018-09-16T08:46:52.405Z,10.13
2018-09-16T08:49:22.153Z,9.47
2018-09-16T08:51:53.476Z,10.93
2018-09-16T08:54:23.541Z,9.97
2018-09-16T08:56:53.197Z,12.03
2018-09-16T08:59:22.847Z,11.87
2018-09-16T09:01:52.563Z,11.43
2018-09-16T09:04:22.227Z,9.70
2018-09-16T09:06:54.068Z,7.27
2018-09-16T09:09:23.736Z,9.30
2018-09-16T09:11:53.396Z,7.27
2018-09-16T09:14:23.138Z,8.43
2018-09-16T09:16:52.763Z,8.97
2018-09-16T09:19:22.457Z,8.20
2018-09-16T09:21:52.148Z,8.87
2018-09-16T09:24:21.800Z,8.27
2018-09-16T09:26:51.485Z,8.03
2018-09-16T09:29:21.161Z,10.70
2018-09-16T09:31:50.892Z,8.03
2018-09-16T09:34:20.611Z,6.50
2018-09-16T09:36:50.373Z,7.53
2018-09-16T09:39:20.048Z,7.07
2018-09-16T09:41:49.729Z,5.63
2018-09-16T09:44:19.446Z,6.90
2018-09-16T09:46:49.131Z,7.63
2018-09-16T09:49:18.780Z,8.63
2018-09-16T09:51:48.517Z,9.17
2018-09-16T09:54:18.168Z,6.33
2018-09-16T09:56:47.824Z,7.43
2018-09-16T09:59:17.773Z,7.30
2018-09-16T10:01:47.400Z,8.13
2018-09-16T10:04:17.153Z,9.57
2018-09-16T10:06:46.828Z,7.97
2018-09-16T10:09:16.473Z,6.30
2018-09-16T10:11:46.157Z,5.13
2018-09-16T10:14:15.825Z,5.73
2018-09-16T10:16:45.543Z,6.03
2018-09-16T10:19:15.208Z,4.23
2018-09-16T10:21:44.880Z,4.57
2018-09-16T10:24:14.619Z,3.33
2018-09-16T10:26:44.317Z,3.83
2018-09-16T10:29:14.016Z,4.53
2018-09-16T10:31:43.707Z,6.87
2018-09-16T10:34:13.355Z,4.50
2018-09-16T10:36:43.052Z,5.10
2018-09-16T10:39:13.096Z,5.70
2018-09-16T10:41:42.753Z,6.03
2018-09-16T10:44:12.439Z,8.80
2018-09-16T10:46:42.093Z,4.83
2018-09-16T10:49:11.784Z,7.53
2018-09-16T10:51:41.431Z,5.70
2018-09-16T10:54:11.128Z,6.27
2018-09-16T10:56:40.791Z,5.97
2018-09-16T10:59:10.469Z,4.10
2018-09-16T11:01:40.112Z,6.43
2018-09-16T11:04:09.802Z,4.53
2018-09-16T11:06:39.468Z,6.00
2018-09-16T11:09:10.384Z,4.43
2018-09-16T11:11:40.103Z,6.03
2018-09-16T11:14:09.813Z,4.47
2018-09-16T11:16:39.448Z,5.10
2018-09-16T11:19:09.160Z,4.07
2018-09-16T11:21:38.808Z,3.47
2018-09-16T11:24:08.516Z,5.67
2018-09-16T11:26:38.213Z,4.92
2018-09-16T11:29:07.881Z,5.47
2018-09-16T11:31:37.596Z,5.65
2018-09-16T11:34:07.286Z,4.03
2018-09-16T11:36:37.041Z,3.35
2018-09-16T11:39:09.908Z,2.55
2018-09-16T11:41:39.590Z,6.40
2018-09-16T11:44:09.236Z,2.40
2018-09-16T11:46:38.908Z,4.55
2018-09-16T11:49:08.613Z,2.77
2018-09-16T11:51:38.303Z,3.60
2018-09-16T11:54:07.999Z,2.87
2018-09-16T11:56:37.656Z,3.42
2018-09-16T11:59:07.347Z,2.92
2018-09-16T12:01:37.012Z,5.75
2018-09-16T12:04:06.708Z,3.15
2018-09-16T12:06:36.360Z,4.35
2018-09-16T12:09:08.124Z,4.00
2018-09-16T12:11:37.798Z,2.42
2018-09-16T12:14:07.488Z,3.75
2018-09-16T12:16:37.173Z,4.28
2018-09-16T12:19:06.812Z,3.30
2018-09-16T12:21:36.460Z,3.33
2018-09-16T12:24:06.371Z,2.72
2018-09-16T12:26:36.008Z,2.33
2018-09-16T12:29:05.656Z,3.20
2018-09-16T12:31:35.320Z,4.28
2018-09-16T12:34:04.988Z,1.98
2018-09-16T12:36:34.645Z,4.70
2018-09-16T12:39:05.193Z,3.42
2018-09-16T12:41:34.823Z,3.02
2018-09-16T12:44:04.559Z,1.95
2018-09-16T12:46:34.192Z,2.72
2018-09-16T12:49:03.895Z,5.40
2018-09-16T12:51:33.552Z,2.60
2018-09-16T12:54:03.256Z,3.42
2018-09-16T12:56:32.931Z,3.00
2018-09-16T12:59:02.592Z,4.92
2018-09-16T13:01:32.284Z,6.12
2018-09-16T13:04:01.934Z,3.85
2018-09-16T13:06:31.639Z,3.27
2018-09-16T13:09:01.336Z,2.60
2018-09-16T13:11:31.004Z,2.27
2018-09-16T13:14:00.667Z,3.17
2018-09-16T13:16:30.312Z,3.33
2018-09-16T13:18:59.992Z,2.98
2018-09-16T13:21:29.683Z,3.22
2018-09-16T13:23:59.380Z,4.37
2018-09-16T13:26:29.041Z,1.80
2018-09-16T13:28:58.691Z,4.50
2018-09-16T13:31:28.386Z,3.02
2018-09-16T13:33:58.099Z,4.12
2018-09-16T13:36:27.724Z,2.17
2018-09-16T13:38:57.420Z,5.58
2018-09-16T13:41:27.072Z,2.80
2018-09-16T13:43:56.729Z,2.47
2018-09-16T13:46:26.420Z,2.20
2018-09-16T13:48:56.104Z,3.25
2018-09-16T13:51:25.741Z,2.80
2018-09-16T13:53:55.434Z,2.87
2018-09-16T13:56:25.179Z,1.80
2018-09-16T13:58:54.981Z,2.70
2018-09-16T14:01:24.620Z,3.05
2018-09-16T14:03:54.317Z,2.47
2018-09-16T14:06:24.049Z,2.27
2018-09-16T14:08:53.700Z,3.37
2018-09-16T14:11:23.392Z,2.95
2018-09-16T14:13:53.049Z,2.45
2018-09-16T14:16:22.752Z,2.62
2018-09-16T14:18:52.408Z,3.45
2018-09-16T14:21:22.080Z,3.20
2018-09-16T14:23:51.728Z,2.20
2018-09-16T14:26:21.424Z,2.92
2018-09-16T14:28:51.076Z,2.72
2018-09-16T14:31:20.760Z,1.75
2018-09-16T14:33:50.403Z,6.10
2018-09-16T14:36:20.092Z,2.77
2018-09-16T14:38:49.745Z,2.20
2018-09-16T14:41:19.406Z,1.82
2018-09-16T14:43:49.088Z,1.95
2018-09-16T14:46:18.716Z,2.90
2018-09-16T14:48:48.384Z,2.95
2018-09-16T14:51:18.144Z,2.75
2018-09-16T14:53:47.786Z,4.42
2018-09-16T14:56:17.428Z,3.87
2018-09-16T14:58:47.112Z,2.25
2018-09-16T15:01:16.764Z,3.62
2018-09-16T15:03:46.436Z,2.65
2018-09-16T15:06:16.292Z,3.12
2018-09-16T15:08:45.981Z,2.25
2018-09-16T15:11:15.640Z,1.50
2018-09-16T15:13:45.354Z,1.80
2018-09-16T15:16:15.048Z,1.98
2018-09-16T15:18:44.739Z,3.77
2018-09-16T15:21:14.627Z,2.90
2018-09-16T15:23:44.281Z,3.47
2018-09-16T15:26:13.973Z,5.70
2018-09-16T15:28:43.676Z,3.10
2018-09-16T15:31:13.411Z,1.72
2018-09-16T15:33:43.056Z,1.60
2018-09-16T15:36:12.778Z,2.27
2018-09-16T15:38:42.421Z,1.55
2018-09-16T15:41:12.128Z,3.62
2018-09-16T15:43:41.846Z,2.75
2018-09-16T15:46:11.523Z,2.67
2018-09-16T15:48:41.205Z,2.77
2018-09-16T15:51:11.237Z,1.77
2018-09-16T15:53:40.905Z,2.45
2018-09-16T15:56:10.600Z,1.95
2018-09-16T15:58:40.265Z,3.12
2018-09-16T16:01:09.948Z,2.92
2018-09-16T16:03:39.620Z,2.27
2018-09-16T16:06:09.272Z,4.87
2018-09-16T16:08:39.027Z,1.67
2018-09-16T16:11:08.689Z,1.87
2018-09-16T16:13:38.472Z,1.85
2018-09-16T16:16:08.143Z,2.05
2018-09-16T16:18:38.876Z,2.27
2018-09-16T16:21:08.548Z,2.55
2018-09-16T16:23:38.240Z,2.35
2018-09-16T16:26:07.944Z,2.17
2018-09-16T16:28:37.689Z,3.20
2018-09-16T16:31:07.368Z,1.57
2018-09-16T16:33:37.010Z,3.00
2018-09-16T16:36:06.708Z,3.98
2018-09-16T16:38:36.351Z,3.47
2018-09-16T16:41:06.092Z,2.15
2018-09-16T16:43:35.723Z,3.63
2018-09-16T16:46:05.421Z,5.13
2018-09-16T16:48:35.157Z,1.85
2018-09-16T16:51:04.834Z,2.60
2018-09-16T16:53:34.468Z,5.33
2018-09-16T16:56:04.160Z,4.43
2018-09-16T16:58:33.795Z,4.27
2018-09-16T17:01:03.559Z,1.80
2018-09-16T17:03:33.436Z,2.57
2018-09-16T17:06:03.140Z,2.80
2018-09-16T17:08:32.777Z,2.60
2018-09-16T17:11:02.445Z,1.60
2018-09-16T17:13:32.110Z,2.53
2018-09-16T17:16:01.876Z,5.63
2018-09-16T17:18:31.548Z,3.47
2018-09-16T17:21:01.481Z,2.73
2018-09-16T17:23:31.163Z,3.63
2018-09-16T17:26:00.832Z,2.93
2018-09-16T17:28:30.496Z,3.00
2018-09-16T17:31:00.205Z,4.67
2018-09-16T17:33:29.886Z,3.43
2018-09-16T17:35:59.540Z,2.10
2018-09-16T17:38:29.295Z,1.83
2018-09-16T17:40:59.188Z,3.10
2018-09-16T17:43:28.840Z,2.67
2018-09-16T17:45:58.547Z,2.40
2018-09-16T17:48:28.212Z,3.83
2018-09-16T17:50:57.878Z,2.13
2018-09-16T17:53:27.934Z,2.27
2018-09-16T17:55:57.621Z,2.83
2018-09-16T17:58:27.312Z,2.03
2018-09-16T18:00:57.065Z,3.77
2018-09-16T18:03:26.714Z,2.47
2018-09-16T18:05:56.380Z,2.40
2018-09-16T18:08:31.229Z,2.63
2018-09-16T18:11:00.904Z,3.83
2018-09-16T18:13:30.568Z,1.77
2018-09-16T18:16:00.271Z,2.03
2018-09-16T18:18:29.940Z,2.80
2018-09-16T18:20:59.644Z,3.17
2018-09-16T18:23:29.305Z,2.60
2018-09-16T18:25:59.021Z,3.27
2018-09-16T18:28:28.677Z,2.57
2018-09-16T18:30:58.384Z,2.83
2018-09-16T18:33:28.028Z,3.67
2018-09-16T18:35:57.742Z,3.07
2018-09-16T18:38:27.404Z,3.73
2018-09-16T18:40:57.076Z,1.43
2018-09-16T18:43:26.879Z,2.03
2018-09-16T18:45:56.495Z,2.30
2018-09-16T18:48:26.184Z,2.70
2018-09-16T18:50:55.884Z,1.67
2018-09-16T18:53:25.559Z,3.30
2018-09-16T18:55:55.194Z,3.07
2018-09-16T18:58:24.892Z,1.33
2018-09-16T19:00:54.548Z,3.80
2018-09-16T19:03:24.220Z,4.00
2018-09-16T19:05:53.909Z,2.40
2018-09-16T19:08:23.645Z,5.40
2018-09-16T19:10:53.306Z,4.13
2018-09-16T19:13:22.985Z,4.23
2018-09-16T19:15:52.679Z,3.33
2018-09-16T19:18:22.316Z,2.17
2018-09-16T19:20:52.004Z,2.17
2018-09-16T19:23:21.675Z,3.47
2018-09-16T19:25:51.331Z,2.97
2018-09-16T19:28:21.004Z,3.77
2018-09-16T19:30:50.707Z,4.70
2018-09-16T19:33:20.367Z,4.40
2018-09-16T19:35:50.081Z,2.13
2018-09-16T19:38:19.764Z,2.17
2018-09-16T19:40:49.428Z,3.10
2018-09-16T19:43:19.118Z,3.73
2018-09-16T19:45:48.772Z,2.53
2018-09-16T19:48:18.477Z,2.70
2018-09-16T19:50:48.128Z,3.50
2018-09-16T19:53:17.782Z,3.33
2018-09-16T19:55:47.485Z,5.03
2018-09-16T19:58:17.152Z,3.10
2018-09-16T20:00:46.844Z,3.90
2018-09-16T20:03:16.516Z,5.33
2018-09-16T20:05:46.220Z,3.03
2018-09-16T20:08:15.893Z,2.00
2018-09-16T20:10:45.569Z,3.20
2018-09-16T20:13:15.256Z,1.30
2018-09-16T20:15:44.979Z,4.33
2018-09-16T20:18:14.644Z,4.80
2018-09-16T20:20:44.330Z,2.40
2018-09-16T20:23:13.984Z,2.53
2018-09-16T20:25:43.667Z,3.53
2018-09-16T20:28:13.333Z,3.10
2018-09-16T20:30:42.993Z,3.47
2018-09-16T20:33:12.724Z,4.37
2018-09-16T20:35:42.400Z,1.80
2018-09-16T20:38:12.091Z,3.67
2018-09-16T20:40:41.731Z,3.63
2018-09-16T20:43:11.625Z,4.57
2018-09-16T20:45:41.284Z,3.27
2018-09-16T20:48:11.005Z,2.40
2018-09-16T20:50:40.682Z,3.77
2018-09-16T20:53:10.372Z,2.33
2018-09-16T20:55:40.043Z,3.37
2018-09-16T20:58:09.751Z,2.50
2018-09-16T21:00:39.392Z,3.40
2018-09-16T21:03:09.071Z,3.50
2018-09-16T21:05:38.748Z,3.17
2018-09-16T21:08:08.448Z,2.83
2018-09-16T21:10:38.124Z,2.70
2018-09-16T21:13:07.789Z,5.90
2018-09-16T21:15:37.484Z,2.07
2018-09-16T21:18:07.318Z,1.97
2018-09-16T21:20:36.975Z,2.87
2018-09-16T21:23:06.680Z,2.10
2018-09-16T21:25:36.407Z,2.27
2018-09-16T21:28:06.588Z,2.77
2018-09-16T21:30:36.244Z,2.27
2018-09-16T21:33:05.911Z,4.00
2018-09-16T21:35:35.636Z,2.90
2018-09-16T21:38:05.333Z,3.13
2018-09-16T21:40:34.977Z,1.83
2018-09-16T21:43:04.672Z,2.47
2018-09-16T21:45:34.345Z,3.60
2018-09-16T21:48:04.016Z,1.83
2018-09-16T21:50:33.679Z,1.83
2018-09-16T21:53:03.346Z,1.80
2018-09-16T21:55:33.007Z,2.90
2018-09-16T21:58:02.696Z,2.67
2018-09-16T22:00:32.376Z,3.90
2018-09-16T22:03:02.083Z,2.73
2018-09-16T22:05:31.729Z,4.20
2018-09-16T22:08:01.369Z,3.10
2018-09-16T22:10:31.044Z,3.57
2018-09-16T22:13:00.692Z,3.27
2018-09-16T22:15:30.340Z,5.53
2018-09-16T22:18:00.034Z,3.43
2018-09-16T22:20:29.697Z,2.87
2018-09-16T22:22:59.343Z,2.97
2018-09-16T22:25:29.067Z,2.90
2018-09-16T22:27:58.733Z,2.30
2018-09-16T22:30:28.377Z,4.03
2018-09-16T22:32:58.092Z,5.60
2018-09-16T22:35:27.873Z,2.37
2018-09-16T22:37:57.532Z,3.23
2018-09-16T22:40:27.231Z,2.27
2018-09-16T22:42:56.884Z,3.17
2018-09-16T22:45:26.522Z,2.80
2018-09-16T22:47:56.260Z,2.10
2018-09-16T22:50:25.928Z,2.60
2018-09-16T22:52:55.592Z,4.70
2018-09-16T22:55:25.268Z,3.87
2018-09-16T22:57:54.948Z,2.70
2018-09-16T23:00:24.633Z,2.53
2018-09-16T23:02:54.296Z,3.43
2018-09-16T23:05:23.987Z,3.03
2018-09-16T23:07:53.634Z,5.23
2018-09-16T23:10:23.321Z,4.27
2018-09-16T23:12:52.992Z,3.40
2018-09-16T23:15:22.649Z,3.47
2018-09-16T23:17:52.336Z,2.87
2018-09-16T23:20:21.992Z,4.57
2018-09-16T23:22:51.641Z,5.70
2018-09-16T23:25:21.321Z,3.20
2018-09-16T23:27:50.981Z,4.43
2018-09-16T23:30:20.656Z,2.97
2018-09-16T23:32:50.297Z,3.40
2018-09-16T23:35:20.000Z,4.87
2018-09-16T23:37:49.660Z,2.73
2018-09-16T23:40:19.352Z,2.57
2018-09-16T23:42:49.013Z,3.07
2018-09-16T23:45:18.712Z,4.30
2018-09-16T23:47:48.397Z,3.20
2018-09-16T23:50:18.038Z,2.13
2018-09-16T23:52:47.688Z,2.50
2018-09-16T23:55:17.365Z,3.67
2018-09-16T23:57:47.038Z,2.20
